Aviation Digital Data Service (ADDS)

Output produced by METARs form (0722 UTC 24 April 2014)
found at http://aviationweather.gov/adds/metars/
 
KPOU 240520Z 2406/2506 30010G16KT P6SM SKC 
     FM241300 32015G27KT P6SM SKC 
     FM250000 32004KT P6SM SCT250